sensor_id;sensor_type;location;lat;lon;timestamp;pressure;altitude;pressure_sealevel;temperature;humidity
21817;BME280;13247;47.504;7.382;2023-04-05T00:00:54;97742.19;;;1.76;100.00
21817;BME280;13247;47.504;7.382;2023-04-05T00:03:38;97747.25;;;1.62;100.00
21817;BME280;13247;47.504;7.382;2023-04-05T00:06:28;97744.66;;;1.65;100.00
21817;BME280;13247;47.504;7.382;2023-04-05T00:09:13;97745.38;;;1.47;100.00
21817;BME280;13247;47.504;7.382;2023-04-05T00:11:58;97744.44;;;1.44;100.00
21817;BME280;13247;47.504;7.382;2023-04-05T00:14:42;97742.06;;;1.62;100.00
21817;BME280;13247;47.504;7.382;2023-04-05T00:17:27;97741.19;;;1.60;100.00
21817;BME280;13247;47.504;7.382;2023-04-05T00:20:13;97741.97;;;1.54;100.00
21817;BME280;13247;47.504;7.382;2023-04-05T00:22:58;97735.03;;;1.47;100.00
21817;BME280;13247;47.504;7.382;2023-04-05T00:25:43;97737.56;;;1.44;100.00
21817;BME280;13247;47.504;7.382;2023-04-05T00:28:28;97731.69;;;1.59;100.00
21817;BME280;13247;47.504;7.382;2023-04-05T00:31:13;97724.69;;;1.47;100.00
21817;BME280;13247;47.504;7.382;2023-04-05T00:33:58;97733.72;;;1.08;100.00
21817;BME280;13247;47.504;7.382;2023-04-05T00:36:42;97736.38;;;1.14;100.00
21817;BME280;13247;47.504;7.382;2023-04-05T00:39:27;97727.88;;;1.24;100.00
21817;BME280;13247;47.504;7.382;2023-04-05T00:42:11;97732.34;;;1.40;100.00
21817;BME280;13247;47.504;7.382;2023-04-05T00:44:56;97726.25;;;1.33;100.00
21817;BME280;13247;47.504;7.382;2023-04-05T00:47:41;97722.72;;;1.25;100.00
21817;BME280;13247;47.504;7.382;2023-04-05T00:50:27;97725.19;;;1.15;100.00
21817;BME280;13247;47.504;7.382;2023-04-05T00:53:19;97723.59;;;1.26;100.00
21817;BME280;13247;47.504;7.382;2023-04-05T00:56:04;97726.28;;;1.36;100.00
21817;BME280;13247;47.504;7.382;2023-04-05T00:58:49;97721.13;;;1.38;100.00
21817;BME280;13247;47.504;7.382;2023-04-05T01:01:36;97722.00;;;1.38;100.00
21817;BME280;13247;47.504;7.382;2023-04-05T01:04:29;97718.53;;;1.35;100.00
21817;BME280;13247;47.504;7.382;2023-04-05T01:10:09;97712.53;;;1.39;100.00
21817;BME280;13247;47.504;7.382;2023-04-05T01:12:56;97712.44;;;1.28;100.00
21817;BME280;13247;47.504;7.382;2023-04-05T01:15:41;97709.91;;;1.33;100.00
21817;BME280;13247;47.504;7.382;2023-04-05T01:18:27;97707.28;;;1.28;100.00
21817;BME280;13247;47.504;7.382;2023-04-05T01:21:43;97702.22;;;1.40;100.00
21817;BME280;13247;47.504;7.382;2023-04-05T01:28:10;97700.34;;;1.26;100.00
21817;BME280;13247;47.504;7.382;2023-04-05T01:31:44;97697.00;;;1.37;100.00
21817;BME280;13247;47.504;7.382;2023-04-05T01:37:34;97688.38;;;1.34;100.00
21817;BME280;13247;47.504;7.382;2023-04-05T01:40:19;97689.16;;;1.27;100.00
21817;BME280;13247;47.504;7.382;2023-04-05T01:43:15;97687.56;;;1.38;100.00
21817;BME280;13247;47.504;7.382;2023-04-05T01:45:59;97677.25;;;1.41;100.00
21817;BME280;13247;47.504;7.382;2023-04-05T01:48:44;97680.38;;;1.10;100.00
21817;BME280;13247;47.504;7.382;2023-04-05T01:51:29;97681.97;;;1.00;100.00
21817;BME280;13247;47.504;7.382;2023-04-05T01:54:13;97676.75;;;0.94;100.00
21817;BME280;13247;47.504;7.382;2023-04-05T01:56:59;97680.78;;;0.69;100.00
21817;BME280;13247;47.504;7.382;2023-04-05T01:59:43;97681.66;;;0.73;100.00
21817;BME280;13247;47.504;7.382;2023-04-05T02:02:28;97671.41;;;0.76;100.00
21817;BME280;13247;47.504;7.382;2023-04-05T02:05:13;97665.44;;;0.82;100.00
21817;BME280;13247;47.504;7.382;2023-04-05T02:07:58;97674.19;;;0.96;100.00
21817;BME280;13247;47.504;7.382;2023-04-05T02:10:43;97671.47;;;0.85;100.00
21817;BME280;13247;47.504;7.382;2023-04-05T02:13:28;97666.13;;;0.68;100.00
21817;BME280;13247;47.504;7.382;2023-04-05T02:16:12;97660.25;;;0.82;100.00
21817;BME280;13247;47.504;7.382;2023-04-05T02:18:57;97666.19;;;0.73;100.00
21817;BME280;13247;47.504;7.382;2023-04-05T02:21:43;97661.97;;;0.82;100.00
21817;BME280;13247;47.504;7.382;2023-04-05T02:24:29;97658.56;;;0.82;100.00
21817;BME280;13247;47.504;7.382;2023-04-05T02:27:14;97653.41;;;0.82;100.00
21817;BME280;13247;47.504;7.382;2023-04-05T02:29:58;97643.75;;;0.67;100.00
21817;BME280;13247;47.504;7.382;2023-04-05T02:32:43;97643.84;;;0.73;100.00
21817;BME280;13247;47.504;7.382;2023-04-05T02:35:31;97646.44;;;0.76;100.00
21817;BME280;13247;47.504;7.382;2023-04-05T02:38:15;97642.16;;;0.78;100.00
21817;BME280;13247;47.504;7.382;2023-04-05T02:41:00;97640.25;;;0.61;100.00
21817;BME280;13247;47.504;7.382;2023-04-05T02:43:45;97651.31;;;0.54;100.00
21817;BME280;13247;47.504;7.382;2023-04-05T02:46:30;97645.34;;;0.59;100.00
21817;BME280;13247;47.504;7.382;2023-04-05T02:49:15;97647.25;;;0.74;100.00
21817;BME280;13247;47.504;7.382;2023-04-05T02:52:00;97649.69;;;0.60;100.00
21817;BME280;13247;47.504;7.382;2023-04-05T02:54:44;97645.41;;;0.62;100.00
21817;BME280;13247;47.504;7.382;2023-04-05T02:57:30;97642.00;;;0.66;100.00
21817;BME280;13247;47.504;7.382;2023-04-05T03:00:15;97642.19;;;0.82;100.00
21817;BME280;13247;47.504;7.382;2023-04-05T03:03:00;97646.34;;;0.67;100.00
21817;BME280;13247;47.504;7.382;2023-04-05T03:05:45;97647.97;;;0.61;100.00
21817;BME280;13247;47.504;7.382;2023-04-05T03:08:32;97642.94;;;0.71;100.00
21817;BME280;13247;47.504;7.382;2023-04-05T03:11:16;97631.78;;;0.74;100.00
21817;BME280;13247;47.504;7.382;2023-04-05T03:14:01;97635.28;;;0.79;100.00
21817;BME280;13247;47.504;7.382;2023-04-05T03:16:46;97633.94;;;0.39;100.00
21817;BME280;13247;47.504;7.382;2023-04-05T03:19:30;97641.75;;;0.45;100.00
21817;BME280;13247;47.504;7.382;2023-04-05T03:22:15;97643.53;;;0.49;100.00
21817;BME280;13247;47.504;7.382;2023-04-05T03:24:59;97640.19;;;0.59;100.00
21817;BME280;13247;47.504;7.382;2023-04-05T03:27:45;97633.19;;;0.49;100.00
21817;BME280;13247;47.504;7.382;2023-04-05T03:30:31;97634.84;;;0.43;100.00
21817;BME280;13247;47.504;7.382;2023-04-05T03:33:17;97634.81;;;0.41;100.00
21817;BME280;13247;47.504;7.382;2023-04-05T03:36:02;97629.72;;;0.44;100.00
21817;BME280;13247;47.504;7.382;2023-04-05T03:38:47;97638.09;;;0.28;100.00
21817;BME280;13247;47.504;7.382;2023-04-05T03:41:33;97638.06;;;0.25;100.00
21817;BME280;13247;47.504;7.382;2023-04-05T03:44:18;97636.09;;;0.09;100.00
21817;BME280;13247;47.504;7.382;2023-04-05T03:47:02;97636.91;;;0.07;100.00
21817;BME280;13247;47.504;7.382;2023-04-05T03:49:47;97630.13;;;0.13;100.00
21817;BME280;13247;47.504;7.382;2023-04-05T03:52:31;97631.91;;;0.17;100.00
21817;BME280;13247;47.504;7.382;2023-04-05T03:55:16;97634.31;;;0.02;100.00
21817;BME280;13247;47.504;7.382;2023-04-05T03:58:01;97625.69;;;0.03;100.00
21817;BME280;13247;47.504;7.382;2023-04-05T04:00:46;97616.22;;;0.00;100.00
21817;BME280;13247;47.504;7.382;2023-04-05T04:03:32;97621.44;;;0.07;100.00
21817;BME280;13247;47.504;7.382;2023-04-05T04:06:16;97620.75;;;0.17;100.00
21817;BME280;13247;47.504;7.382;2023-04-05T04:09:01;97622.47;;;0.19;100.00
21817;BME280;13247;47.504;7.382;2023-04-05T04:11:49;97626.72;;;0.13;100.00
21817;BME280;13247;47.504;7.382;2023-04-05T04:14:34;97625.63;;;-0.03;100.00
21817;BME280;13247;47.504;7.382;2023-04-05T04:17:29;97612.06;;;0.10;100.00
21817;BME280;13247;47.504;7.382;2023-04-05T04:20:15;97619.06;;;0.20;100.00
21817;BME280;13247;47.504;7.382;2023-04-05T04:22:59;97619.88;;;0.18;100.00
21817;BME280;13247;47.504;7.382;2023-04-05T04:25:44;97619.91;;;0.19;100.00
21817;BME280;13247;47.504;7.382;2023-04-05T04:28:29;97614.59;;;0.09;100.00
21817;BME280;13247;47.504;7.382;2023-04-05T04:31:17;97621.56;;;0.14;100.00
21817;BME280;13247;47.504;7.382;2023-04-05T04:34:04;97613.69;;;0.04;100.00
21817;BME280;13247;47.504;7.382;2023-04-05T04:36:50;97619.59;;;-0.02;100.00
21817;BME280;13247;47.504;7.382;2023-04-05T04:39:44;97619.50;;;-0.11;100.00
21817;BME280;13247;47.504;7.382;2023-04-05T04:42:30;97612.72;;;-0.03;100.00
21817;BME280;13247;47.504;7.382;2023-04-05T04:45:18;97620.41;;;-0.06;100.00
21817;BME280;13247;47.504;7.382;2023-04-05T04:48:03;97638.81;;;-0.40;100.00
21817;BME280;13247;47.504;7.382;2023-04-05T04:50:51;97631.00;;;-0.45;100.00
21817;BME280;13247;47.504;7.382;2023-04-05T04:53:36;97637.16;;;-0.35;100.00
21817;BME280;13247;47.504;7.382;2023-04-05T04:56:20;97635.38;;;-0.39;100.00
21817;BME280;13247;47.504;7.382;2023-04-05T04:59:05;97646.44;;;-0.45;100.00
21817;BME280;13247;47.504;7.382;2023-04-05T05:01:49;97655.97;;;-0.39;100.00
21817;BME280;13247;47.504;7.382;2023-04-05T05:04:34;97649.03;;;-0.43;100.00
21817;BME280;13247;47.504;7.382;2023-04-05T05:07:19;97653.28;;;-0.47;100.00
21817;BME280;13247;47.504;7.382;2023-04-05T05:10:05;97654.78;;;-0.59;100.00
21817;BME280;13247;47.504;7.382;2023-04-05T05:12:51;97655.00;;;-0.47;100.00
21817;BME280;13247;47.504;7.382;2023-04-05T05:15:38;97667.06;;;-0.45;100.00
21817;BME280;13247;47.504;7.382;2023-04-05T05:18:22;97659.28;;;-0.46;100.00
21817;BME280;13247;47.504;7.382;2023-04-05T05:21:07;97667.88;;;-0.47;100.00
21817;BME280;13247;47.504;7.382;2023-04-05T05:23:52;97671.41;;;-0.42;100.00
21817;BME280;13247;47.504;7.382;2023-04-05T05:26:36;97671.34;;;-0.45;100.00
21817;BME280;13247;47.504;7.382;2023-04-05T05:29:21;97664.41;;;-0.49;100.00
21817;BME280;13247;47.504;7.382;2023-04-05T05:32:07;97673.66;;;-0.59;100.00
21817;BME280;13247;47.504;7.382;2023-04-05T05:34:52;97672.13;;;-0.49;100.00
21817;BME280;13247;47.504;7.382;2023-04-05T05:37:38;97667.69;;;-0.56;100.00
21817;BME280;13247;47.504;7.382;2023-04-05T05:40:23;97669.38;;;-0.58;100.00
21817;BME280;13247;47.504;7.382;2023-04-05T05:43:10;97676.59;;;-0.38;100.00
21817;BME280;13247;47.504;7.382;2023-04-05T05:45:54;97673.31;;;-0.29;100.00
21817;BME280;13247;47.504;7.382;2023-04-05T05:48:39;97676.75;;;-0.30;100.00
21817;BME280;13247;47.504;7.382;2023-04-05T05:51:25;97673.13;;;-0.41;100.00
21817;BME280;13247;47.504;7.382;2023-04-05T05:54:09;97680.84;;;-0.41;100.00
21817;BME280;13247;47.504;7.382;2023-04-05T05:56:54;97681.13;;;-0.25;100.00
21817;BME280;13247;47.504;7.382;2023-04-05T05:59:39;97676.94;;;-0.18;100.00
21817;BME280;13247;47.504;7.382;2023-04-05T06:02:24;97688.84;;;-0.25;100.00
21817;BME280;13247;47.504;7.382;2023-04-05T06:05:10;97685.28;;;-0.31;100.00
21817;BME280;13247;47.504;7.382;2023-04-05T06:07:54;97698.25;;;-0.27;100.00
21817;BME280;13247;47.504;7.382;2023-04-05T06:10:39;97692.31;;;-0.23;100.00
21817;BME280;13247;47.504;7.382;2023-04-05T06:13:23;97694.88;;;-0.23;100.00
21817;BME280;13247;47.504;7.382;2023-04-05T06:16:08;97689.06;;;-0.11;100.00
21817;BME280;13247;47.504;7.382;2023-04-05T06:18:53;97695.28;;;0.03;100.00
21817;BME280;13247;47.504;7.382;2023-04-05T06:21:40;97692.72;;;0.03;100.00
21817;BME280;13247;47.504;7.382;2023-04-05T06:24:24;97687.75;;;0.15;100.00
21817;BME280;13247;47.504;7.382;2023-04-05T06:27:09;97692.16;;;0.22;100.00
21817;BME280;13247;47.504;7.382;2023-04-05T06:29:54;97698.34;;;0.36;100.00
21817;BME280;13247;47.504;7.382;2023-04-05T06:32:42;97704.47;;;0.41;100.00
21817;BME280;13247;47.504;7.382;2023-04-05T06:35:27;97699.91;;;0.24;100.00
21817;BME280;13247;47.504;7.382;2023-04-05T06:38:12;97705.09;;;0.25;100.00
21817;BME280;13247;47.504;7.382;2023-04-05T06:40:56;97692.50;;;0.46;100.00
21817;BME280;13247;47.504;7.382;2023-04-05T06:43:41;97688.41;;;0.63;100.00
21817;BME280;13247;47.504;7.382;2023-04-05T06:46:25;97687.03;;;0.90;100.00
21817;BME280;13247;47.504;7.382;2023-04-05T06:49:10;97686.19;;;0.91;100.00
21817;BME280;13247;47.504;7.382;2023-04-05T06:51:54;97687.84;;;0.84;100.00
21817;BME280;13247;47.504;7.382;2023-04-05T06:54:39;97676.75;;;0.93;100.00
21817;BME280;13247;47.504;7.382;2023-04-05T06:57:24;97681.19;;;1.06;100.00
21817;BME280;13247;47.504;7.382;2023-04-05T07:00:08;97677.81;;;1.11;100.00
21817;BME280;13247;47.504;7.382;2023-04-05T07:02:54;97681.38;;;1.24;100.00
21817;BME280;13247;47.504;7.382;2023-04-05T07:05:39;97684.06;;;1.33;100.00
21817;BME280;13247;47.504;7.382;2023-04-05T07:08:26;97679.03;;;1.45;100.00
21817;BME280;13247;47.504;7.382;2023-04-05T07:11:12;97681.59;;;1.43;100.00
21817;BME280;13247;47.504;7.382;2023-04-05T07:13:58;97686.88;;;1.54;100.00
21817;BME280;13247;47.504;7.382;2023-04-05T07:16:42;97687.06;;;1.77;100.00
21817;BME280;13247;47.504;7.382;2023-04-05T07:19:27;97691.53;;;1.94;100.00
21817;BME280;13247;47.504;7.382;2023-04-05T07:22:12;97689.69;;;1.84;100.00
21817;BME280;13247;47.504;7.382;2023-04-05T07:24:56;97689.75;;;1.87;100.00
21817;BME280;13247;47.504;7.382;2023-04-05T07:27:41;97690.66;;;1.95;100.00
21817;BME280;13247;47.504;7.382;2023-04-05T07:30:26;97689.75;;;1.90;100.00
21817;BME280;13247;47.504;7.382;2023-04-05T07:33:11;97694.28;;;2.20;100.00
21817;BME280;13247;47.504;7.382;2023-04-05T07:35:56;97696.06;;;2.25;100.00
21817;BME280;13247;47.504;7.382;2023-04-05T07:38:41;97683.13;;;2.28;100.00
21817;BME280;13247;47.504;7.382;2023-04-05T07:41:28;97684.03;;;2.32;100.00
21817;BME280;13247;47.504;7.382;2023-04-05T07:44:18;97683.31;;;2.57;100.00
21817;BME280;13247;47.504;7.382;2023-04-05T07:47:03;97691.13;;;2.65;100.00
21817;BME280;13247;47.504;7.382;2023-04-05T07:49:47;97688.56;;;2.77;100.00
21817;BME280;13247;47.504;7.382;2023-04-05T07:52:32;97681.75;;;2.94;100.00
21817;BME280;13247;47.504;7.382;2023-04-05T07:55:17;97687.78;;;2.94;97.62
21817;BME280;13247;47.504;7.382;2023-04-05T07:58:01;97679.22;;;3.09;100.00
21817;BME280;13247;47.504;7.382;2023-04-05T08:00:46;97683.56;;;3.22;98.47
21817;BME280;13247;47.504;7.382;2023-04-05T08:03:31;97682.75;;;3.31;94.72
21817;BME280;13247;47.504;7.382;2023-04-05T08:06:18;97681.88;;;3.36;98.87
21817;BME280;13247;47.504;7.382;2023-04-05T08:09:03;97674.16;;;3.62;100.00
21817;BME280;13247;47.504;7.382;2023-04-05T08:11:49;97666.41;;;3.75;90.91
21817;BME280;13247;47.504;7.382;2023-04-05T08:14:35;97669.84;;;3.74;86.44
21817;BME280;13247;47.504;7.382;2023-04-05T08:17:20;97671.56;;;3.87;84.65
21817;BME280;13247;47.504;7.382;2023-04-05T08:20:05;97662.06;;;3.95;91.17
21817;BME280;13247;47.504;7.382;2023-04-05T08:22:50;97666.38;;;4.28;84.30
21817;BME280;13247;47.504;7.382;2023-04-05T08:25:35;97665.50;;;4.19;82.91
21817;BME280;13247;47.504;7.382;2023-04-05T08:28:19;97666.38;;;4.33;82.23
21817;BME280;13247;47.504;7.382;2023-04-05T08:31:05;97662.91;;;4.32;84.38
21817;BME280;13247;47.504;7.382;2023-04-05T08:33:50;97665.50;;;4.31;82.17
21817;BME280;13247;47.504;7.382;2023-04-05T08:36:34;97665.44;;;4.53;80.81
21817;BME280;13247;47.504;7.382;2023-04-05T08:39:19;97670.66;;;4.44;75.21
21817;BME280;13247;47.504;7.382;2023-04-05T08:44:53;97670.56;;;4.71;78.91
21817;BME280;13247;47.504;7.382;2023-04-05T08:47:41;97668.78;;;4.93;77.85
21817;BME280;13247;47.504;7.382;2023-04-05T08:50:26;97669.59;;;5.04;77.77
21817;BME280;13247;47.504;7.382;2023-04-05T08:53:11;97664.38;;;5.07;75.16
21817;BME280;13247;47.504;7.382;2023-04-05T08:55:56;97663.53;;;5.07;73.04
21817;BME280;13247;47.504;7.382;2023-04-05T08:58:51;97666.03;;;5.28;68.69
21817;BME280;13247;47.504;7.382;2023-04-05T09:01:44;97668.66;;;5.19;63.18
21817;BME280;13247;47.504;7.382;2023-04-05T09:04:33;97668.69;;;5.14;62.53
21817;BME280;13247;47.504;7.382;2023-04-05T09:07:21;97665.16;;;5.27;69.80
21817;BME280;13247;47.504;7.382;2023-04-05T09:10:07;97664.16;;;5.45;63.26
21817;BME280;13247;47.504;7.382;2023-04-05T09:12:52;97666.09;;;5.17;59.54
21817;BME280;13247;47.504;7.382;2023-04-05T09:15:38;97661.63;;;5.40;59.03
21817;BME280;13247;47.504;7.382;2023-04-05T09:18:24;97661.34;;;5.77;61.27
21817;BME280;13247;47.504;7.382;2023-04-05T09:21:09;97659.56;;;5.91;60.74
21817;BME280;13247;47.504;7.382;2023-04-05T09:23:54;97663.63;;;6.19;61.68
21817;BME280;13247;47.504;7.382;2023-04-05T09:26:40;97656.47;;;6.44;58.92
21817;BME280;13247;47.504;7.382;2023-04-05T09:29:29;97652.16;;;6.41;57.16
21817;BME280;13247;47.504;7.382;2023-04-05T09:32:15;97660.63;;;6.60;57.61
21817;BME280;13247;47.504;7.382;2023-04-05T09:35:00;97658.88;;;6.62;56.31
21817;BME280;13247;47.504;7.382;2023-04-05T09:37:52;97661.34;;;6.75;55.73
21817;BME280;13247;47.504;7.382;2023-04-05T09:40:47;97661.19;;;6.90;55.60
21817;BME280;13247;47.504;7.382;2023-04-05T09:43:40;97655.09;;;6.90;52.72
21817;BME280;13247;47.504;7.382;2023-04-05T09:49:31;97669.69;;;6.21;50.31
21817;BME280;13247;47.504;7.382;2023-04-05T09:52:19;97662.66;;;6.33;53.06
21817;BME280;13247;47.504;7.382;2023-04-05T09:55:04;97657.97;;;6.66;53.39
21817;BME280;13247;47.504;7.382;2023-04-05T09:57:50;97656.69;;;7.00;50.50
21817;BME280;13247;47.504;7.382;2023-04-05T10:00:35;97660.00;;;7.16;49.77
21817;BME280;13247;47.504;7.382;2023-04-05T10:03:20;97657.00;;;7.43;49.83
21817;BME280;13247;47.504;7.382;2023-04-05T10:06:08;97646.50;;;7.46;48.77
21817;BME280;13247;47.504;7.382;2023-04-05T10:08:53;97645.78;;;7.36;50.60
21817;BME280;13247;47.504;7.382;2023-04-05T10:11:38;97654.22;;;7.55;49.59
21817;BME280;13247;47.504;7.382;2023-04-05T10:14:23;97640.13;;;7.68;49.15
21817;BME280;13247;47.504;7.382;2023-04-05T10:17:23;97639.22;;;8.25;48.66
21817;BME280;13247;47.504;7.382;2023-04-05T10:20:14;97638.69;;;8.02;50.81
21817;BME280;13247;47.504;7.382;2023-04-05T10:23:44;97640.81;;;7.79;49.46
21817;BME280;13247;47.504;7.382;2023-04-05T10:26:48;97639.22;;;7.69;48.08
21817;BME280;13247;47.504;7.382;2023-04-05T10:29:51;97638.81;;;7.96;47.52
21817;BME280;13247;47.504;7.382;2023-04-05T10:39:12;97636.84;;;8.09;49.08
21817;BME280;13247;47.504;7.382;2023-04-05T10:42:20;97627.84;;;8.25;48.29
21817;BME280;13247;47.504;7.382;2023-04-05T10:45:08;97628.91;;;8.63;48.71
21817;BME280;13247;47.504;7.382;2023-04-05T10:48:09;97624.19;;;8.36;47.50
21817;BME280;13247;47.504;7.382;2023-04-05T10:50:59;97626.59;;;8.48;47.90
21817;BME280;13247;47.504;7.382;2023-04-05T10:53:44;97633.75;;;7.85;51.13
21817;BME280;13247;47.504;7.382;2023-04-05T10:56:30;97625.97;;;8.79;48.93
21817;BME280;13247;47.504;7.382;2023-04-05T10:59:15;97624.53;;;9.46;47.63
21817;BME280;13247;47.504;7.382;2023-04-05T11:02:01;97630.47;;;8.74;46.86
21817;BME280;13247;47.504;7.382;2023-04-05T11:04:55;97630.59;;;8.67;46.86
21817;BME280;13247;47.504;7.382;2023-04-05T11:07:42;97634.66;;;8.82;48.37
21817;BME280;13247;47.504;7.382;2023-04-05T11:10:28;97625.88;;;9.26;45.92
21817;BME280;13247;47.504;7.382;2023-04-05T11:13:14;97622.44;;;9.24;45.07
21817;BME280;13247;47.504;7.382;2023-04-05T11:16:08;97625.88;;;9.26;46.61
21817;BME280;13247;47.504;7.382;2023-04-05T11:18:53;97621.09;;;9.05;45.03
21817;BME280;13247;47.504;7.382;2023-04-05T11:21:37;97620.97;;;9.11;45.64
21817;BME280;13247;47.504;7.382;2023-04-05T11:24:22;97621.75;;;8.73;45.40
21817;BME280;13247;47.504;7.382;2023-04-05T11:27:09;97615.09;;;9.01;46.64
21817;BME280;13247;47.504;7.382;2023-04-05T11:29:54;97614.59;;;9.24;48.61
21817;BME280;13247;47.504;7.382;2023-04-05T11:32:44;97620.50;;;8.92;45.86
21817;BME280;13247;47.504;7.382;2023-04-05T11:35:34;97598.78;;;9.65;47.22
21817;BME280;13247;47.504;7.382;2023-04-05T11:38:22;97601.66;;;10.26;46.03
21817;BME280;13247;47.504;7.382;2023-04-05T11:41:13;97602.06;;;10.45;45.41
21817;BME280;13247;47.504;7.382;2023-04-05T11:44:02;97607.47;;;9.30;45.02
21817;BME280;13247;47.504;7.382;2023-04-05T11:46:49;97598.13;;;9.94;45.67
21817;BME280;13247;47.504;7.382;2023-04-05T11:49:35;97598.13;;;9.57;44.90
21817;BME280;13247;47.504;7.382;2023-04-05T11:52:20;97590.13;;;9.63;45.25
21817;BME280;13247;47.504;7.382;2023-04-05T11:55:05;97594.53;;;9.23;46.48
21817;BME280;13247;47.504;7.382;2023-04-05T11:57:52;97586.19;;;9.45;45.47
21817;BME280;13247;47.504;7.382;2023-04-05T12:00:37;97586.81;;;9.17;47.72
21817;BME280;13247;47.504;7.382;2023-04-05T12:03:21;97592.13;;;9.14;46.29
21817;BME280;13247;47.504;7.382;2023-04-05T12:06:06;97592.97;;;9.16;46.12
21817;BME280;13247;47.504;7.382;2023-04-05T12:08:54;97583.84;;;9.70;44.87
21817;BME280;13247;47.504;7.382;2023-04-05T12:11:39;97583.66;;;10.14;44.46
21817;BME280;13247;47.504;7.382;2023-04-05T12:14:24;97580.28;;;10.09;44.67
21817;BME280;13247;47.504;7.382;2023-04-05T12:17:09;97581.44;;;10.32;44.45
21817;BME280;13247;47.504;7.382;2023-04-05T12:19:53;97572.69;;;9.97;46.92
21817;BME280;13247;47.504;7.382;2023-04-05T12:22:40;97582.38;;;10.31;44.38
21817;BME280;13247;47.504;7.382;2023-04-05T12:25:25;97581.09;;;9.76;45.59
21817;BME280;13247;47.504;7.382;2023-04-05T12:28:10;97567.69;;;9.53;45.33
21817;BME280;13247;47.504;7.382;2023-04-05T12:30:56;97570.91;;;9.64;45.80
21817;BME280;13247;47.504;7.382;2023-04-05T12:33:42;97559.03;;;9.49;48.16
21817;BME280;13247;47.504;7.382;2023-04-05T12:36:27;97562.97;;;10.02;46.98
21817;BME280;13247;47.504;7.382;2023-04-05T12:39:15;97563.03;;;10.65;45.98
21817;BME280;13247;47.504;7.382;2023-04-05T12:42:00;97552.44;;;10.99;44.27
21817;BME280;13247;47.504;7.382;2023-04-05T12:44:45;97560.25;;;10.39;43.70
21817;BME280;13247;47.504;7.382;2023-04-05T12:47:56;97555.81;;;10.43;42.60
21817;BME280;13247;47.504;7.382;2023-04-05T12:50:46;97555.59;;;9.83;44.84
21817;BME280;13247;47.504;7.382;2023-04-05T12:53:31;97552.94;;;9.86;44.49
21817;BME280;13247;47.504;7.382;2023-04-05T12:56:17;97554.53;;;10.25;43.24
21817;BME280;13247;47.504;7.382;2023-04-05T12:59:05;97549.78;;;10.39;42.92
21817;BME280;13247;47.504;7.382;2023-04-05T13:01:51;97543.72;;;10.03;42.22
21817;BME280;13247;47.504;7.382;2023-04-05T13:04:35;97544.56;;;10.99;42.07
21817;BME280;13247;47.504;7.382;2023-04-05T13:07:20;97537.78;;;11.21;41.02
21817;BME280;13247;47.504;7.382;2023-04-05T13:10:05;97531.03;;;11.13;40.74
21817;BME280;13247;47.504;7.382;2023-04-05T13:12:50;97540.94;;;10.74;40.07
21817;BME280;13247;47.504;7.382;2023-04-05T13:15:35;97529.25;;;11.13;40.25
21817;BME280;13247;47.504;7.382;2023-04-05T13:18:20;97529.31;;;11.39;40.03
21817;BME280;13247;47.504;7.382;2023-04-05T13:21:05;97518.69;;;12.22;38.35
21817;BME280;13247;47.504;7.382;2023-04-05T13:23:51;97515.63;;;12.34;39.45
21817;BME280;13247;47.504;7.382;2023-04-05T13:26:35;97507.03;;;13.00;38.06
21817;BME280;13247;47.504;7.382;2023-04-05T13:29:20;97512.31;;;12.77;37.79
21817;BME280;13247;47.504;7.382;2023-04-05T13:32:05;97524.09;;;11.67;39.77
21817;BME280;13247;47.504;7.382;2023-04-05T13:34:50;97516.81;;;11.20;40.51
21817;BME280;13247;47.504;7.382;2023-04-05T13:37:34;97516.31;;;11.07;40.01
21817;BME280;13247;47.504;7.382;2023-04-05T13:40:19;97516.66;;;10.67;42.20
21817;BME280;13247;47.504;7.382;2023-04-05T13:43:04;97516.78;;;10.63;39.73
21817;BME280;13247;47.504;7.382;2023-04-05T13:45:49;97516.06;;;10.58;38.86
21817;BME280;13247;47.504;7.382;2023-04-05T13:48:34;97502.25;;;11.10;38.24
21817;BME280;13247;47.504;7.382;2023-04-05T13:51:19;97502.22;;;11.65;37.84
21817;BME280;13247;47.504;7.382;2023-04-05T13:54:04;97497.38;;;12.05;35.48
21817;BME280;13247;47.504;7.382;2023-04-05T13:56:48;97483.50;;;12.26;37.69
21817;BME280;13247;47.504;7.382;2023-04-05T13:59:33;97478.25;;;12.49;37.33
21817;BME280;13247;47.504;7.382;2023-04-05T14:02:18;97483.63;;;13.37;35.75
21817;BME280;13247;47.504;7.382;2023-04-05T14:05:05;97482.16;;;12.38;36.68
21817;BME280;13247;47.504;7.382;2023-04-05T14:07:50;97479.41;;;12.18;36.21
21817;BME280;13247;47.504;7.382;2023-04-05T14:10:35;97469.00;;;12.86;35.10
21817;BME280;13247;47.504;7.382;2023-04-05T14:13:19;97474.56;;;12.30;35.21
21817;BME280;13247;47.504;7.382;2023-04-05T14:16:04;97465.75;;;12.79;33.66
21817;BME280;13247;47.504;7.382;2023-04-05T14:18:49;97462.28;;;13.65;34.75
21817;BME280;13247;47.504;7.382;2023-04-05T14:21:34;97465.09;;;14.02;33.26
21817;BME280;13247;47.504;7.382;2023-04-05T14:24:20;97457.00;;;14.27;33.58
21817;BME280;13247;47.504;7.382;2023-04-05T14:27:05;97460.75;;;14.42;34.31
21817;BME280;13247;47.504;7.382;2023-04-05T14:29:50;97458.88;;;12.75;33.31
21817;BME280;13247;47.504;7.382;2023-04-05T14:32:35;97463.94;;;13.26;33.20
21817;BME280;13247;47.504;7.382;2023-04-05T14:35:20;97466.13;;;12.21;34.88
21817;BME280;13247;47.504;7.382;2023-04-05T14:38:05;97469.69;;;12.20;33.28
21817;BME280;13247;47.504;7.382;2023-04-05T14:40:49;97472.22;;;11.98;34.06
21817;BME280;13247;47.504;7.382;2023-04-05T14:43:34;97469.91;;;12.14;33.94
21817;BME280;13247;47.504;7.382;2023-04-05T14:46:19;97464.47;;;11.94;37.15
21817;BME280;13247;47.504;7.382;2023-04-05T14:49:04;97464.09;;;11.27;36.63
21817;BME280;13247;47.504;7.382;2023-04-05T14:51:48;97461.13;;;11.10;35.34
21817;BME280;13247;47.504;7.382;2023-04-05T14:54:33;97457.69;;;11.08;34.94
21817;BME280;13247;47.504;7.382;2023-04-05T14:57:18;97457.56;;;11.91;36.04
21817;BME280;13247;47.504;7.382;2023-04-05T15:00:03;97454.03;;;11.92;36.82
21817;BME280;13247;47.504;7.382;2023-04-05T15:02:48;97452.66;;;11.02;35.67
21817;BME280;13247;47.504;7.382;2023-04-05T15:05:33;97449.06;;;12.09;37.91